Sommario della gara (Circuito: Indianapolis | Stagione: 72 | Gara: 12 | Gruppo: Amateur - 67)

Stagione:  Gara:

Seleziona un altro gruppo:

Pos Progressi Gomme Naz. Nome Manager Tempo di gara Giri Pitstop Miglior giro Velocità media Miglior tempo ai Pit-stop
01. Nessun cambiamento ±0 Pipirelli   Jaroslav Boruvka 1h37:45.137 73 2 1:17.893 188.19km/h 21.282s
02. +4 +4 Pipirelli   Zlatko Vlasta + 2.222 73 2 1:16.866 188.12km/h 20.187s
03. +1 +1 Pipirelli   Luca Senatore + 6.696 73 2 1:17.890 187.98km/h 20.655s
04. +4 +4 Pipirelli   Alexandre Faria + 10.170 73 2 1:17.101 187.86km/h 22.681s
05. +4 +4 Pipirelli   Calum MacKinnon + 23.423 73 2 1:18.061 187.44km/h 21.495s
06. +5 +5 Pipirelli   Justin Valdez + 26.555 73 2 1:17.303 187.34km/h 25.006s
07. -4 -4 Pipirelli   Edward Coulman + 47.162 73 2 1:18.034 186.69km/h 22.457s
08. +7 +7 Pipirelli   Riccardo Mori + 47.828 73 2 1:18.081 186.67km/h 20.609s
09. +4 +4 Pipirelli   Kostas Katagas + 48.122 73 2 1:17.772 186.66km/h 26.199s
10. +4 +4 Pipirelli   Rodrigo Tonini Da Silva + 48.468 73 1 1:18.844 186.65km/h 26.852s
11. +13 +13 Pipirelli   Ross Tindiglia + 52.350 73 2 1:17.988 186.53km/h 21.585s
12. +8 +8 Pipirelli   Janos Keri + 55.305 73 1 1:18.686 186.43km/h 25.530s
13. -8 -8 Pipirelli   Alessandro Campanella + 55.913 73 3 1:17.611 186.41km/h 20.321s
14. +4 +4 Pipirelli   Jacques Wessels + 1:02.735 73 1 1:18.492 186.20km/h 30.176s
15. -3 -3 Pipirelli   Luciano Sales + 1:23.979 72 1 1:19.474 185.53km/h 24.355s
16. +10 +10 Pipirelli   Davide Farinella + 1:26.951 72 1 1:19.128 185.44km/h 27.451s
17. +4 +4 Pipirelli   Sylwester Sysak + 1:28.252 72 2 1:19.040 185.40km/h 23.799s
18. -16 -16 Pipirelli   Alexandre Lietz + 1:29.938 72 3 1:17.730 185.35km/h 22.323s
19. -2 -2 Pipirelli   Vasiliy Petleshkov + 1:31.445 72 2 1:17.786 185.30km/h 27.070s
20. +3 +3 Pipirelli   Andy Guy + 1:37.067 72 2 1:17.429 185.13km/h 20.688s
21. -5 -5 Pipirelli   Nicolás Bacigalupo + 1:44.908 72 2 1:18.433 184.88km/h 21.153s
22. Nessun cambiamento ±0 Pipirelli   Alexey Laktionov + 1:47.478 72 2 1:19.014 184.80km/h 21.387s
23. +2 +2 Pipirelli   Sergio Henkes + 1:50.213 72 2 1:18.191 184.72km/h 23.398s
24. -14 -14 Pipirelli   Luca Foietta + 1:51.798 72 1 1:19.408 184.67km/h 29.259s
25. +2 +2 Pipirelli   Radoslav Kus + 1:52.146 72 2 1:18.905 184.66km/h 21.840s
26. +5 +5 Pipirelli   Agustin Alessandro + 2:05.684 72 2 1:18.798 184.24km/h 23.412s
27. +1 +1 Pipirelli   Yura Murashko + 2:10.650 72 2 1:18.949 184.09km/h 24.877s
28. +1 +1 Pipirelli   Massimiliano Fregni + 2:14.609 72 1 1:19.005 183.97km/h 29.401s
29. +4 +4 Pipirelli   Josip Kraljić + 3:33.717 71 2 1:20.683 181.57km/h 25.084s
30. +2 +2 Pipirelli   Marcin Ciesielski + 4:09.332 70 3 1:18.679 180.52km/h 22.971s
31. -12 -12 Pipirelli   Enrico Cerbaro + 6:44.024 68 3 1:20.544 176.06km/h 22.900s
32. -2 -2 Pipirelli   Przemysław Korek + 7:57.787 67 2 1:21.405 174.01km/h 21.931s
Non classificato
33. -26 -26 Pipirelli   António Pereira Problemi tecnici 55 2 1:19.681    24.033s